sensor_id;sensor_type;location;lat;lon;timestamp;pressure;altitude;pressure_sealevel;temperature;humidity
11302;BME280;5706;50.650;13.380;2023-02-18T08:57:31;93648.00;;;-140.63;65.40
11302;BME280;5706;50.650;13.380;2023-02-18T08:59:59;93633.91;;;-140.63;65.56
11302;BME280;5706;50.650;13.380;2023-02-18T09:02:26;93635.94;;;-140.63;65.27
11302;BME280;5706;50.650;13.380;2023-02-18T09:04:54;93589.69;;;-140.63;64.75
11302;BME280;5706;50.650;13.380;2023-02-18T09:07:23;93708.28;;;-140.63;66.43
11302;BME280;5706;50.650;13.380;2023-02-18T09:09:51;93666.09;;;-140.63;65.69
11302;BME280;5706;50.650;13.380;2023-02-18T09:12:20;93696.22;;;-140.63;65.75
11302;BME280;5706;50.650;13.380;2023-02-18T09:14:48;93694.22;;;-140.63;66.16
11302;BME280;5706;50.650;13.380;2023-02-18T09:17:15;93643.97;;;-140.63;65.83
11302;BME280;5706;50.650;13.380;2023-02-18T09:19:43;93658.03;;;-140.63;66.13
11302;BME280;5706;50.650;13.380;2023-02-18T09:22:10;93712.31;;;-140.63;65.83
11302;BME280;5706;50.650;13.380;2023-02-18T09:24:39;93883.16;;;-140.63;67.18
11302;BME280;5706;50.650;13.380;2023-02-18T09:27:07;93800.75;;;-140.63;66.52
11302;BME280;5706;50.650;13.380;2023-02-18T09:29:38;93732.41;;;-140.63;66.00
11302;BME280;5706;50.650;13.380;2023-02-18T09:32:07;93794.72;;;-140.63;67.16
11302;BME280;5706;50.650;13.380;2023-02-18T09:34:37;93776.63;;;-140.63;66.43
11302;BME280;5706;50.650;13.380;2023-02-18T09:37:04;93812.81;;;-140.63;66.33
11302;BME280;5706;50.650;13.380;2023-02-18T09:39:32;93840.97;;;-140.63;66.96
11302;BME280;5706;50.650;13.380;2023-02-18T09:42:01;93832.91;;;-140.63;67.48
11302;BME280;5706;50.650;13.380;2023-02-18T09:44:35;93879.16;;;-140.63;67.38
11302;BME280;5706;50.650;13.380;2023-02-18T09:47:10;93873.13;;;-140.63;66.78
11302;BME280;5706;50.650;13.380;2023-02-18T09:49:44;93782.66;;;-140.63;66.55
11302;BME280;5706;50.650;13.380;2023-02-18T09:52:18;93838.94;;;-140.63;67.19
11302;BME280;5706;50.650;13.380;2023-02-18T09:54:48;93873.13;;;-140.63;67.48
11302;BME280;5706;50.650;13.380;2023-02-18T09:57:22;93935.44;;;-140.63;67.83
11302;BME280;5706;50.650;13.380;2023-02-18T09:59:59;93985.69;;;-140.63;68.47
11302;BME280;5706;50.650;13.380;2023-02-18T10:02:31;94086.19;;;-140.63;68.86
11302;BME280;5706;50.650;13.380;2023-02-18T10:05:01;94072.13;;;-140.63;69.01
11302;BME280;5706;50.650;13.380;2023-02-18T10:07:32;94150.53;;;-140.63;69.39
11302;BME280;5706;50.650;13.380;2023-02-18T10:10:04;94118.38;;;-140.63;69.19
11302;BME280;5706;50.650;13.380;2023-02-18T10:20:09;93967.59;;;-140.63;67.64
11302;BME280;5706;50.650;13.380;2023-02-18T10:22:47;93931.41;;;-140.63;67.46
11302;BME280;5706;50.650;13.380;2023-02-18T10:25:40;93997.75;;;-140.63;67.55
11302;BME280;5706;50.650;13.380;2023-02-18T10:28:24;93899.25;;;-140.63;67.44
11302;BME280;5706;50.650;13.380;2023-02-18T10:30:58;93923.38;;;-140.63;67.58
11302;BME280;5706;50.650;13.380;2023-02-18T10:33:45;93871.09;;;-140.63;67.26
11302;BME280;5706;50.650;13.380;2023-02-18T10:36:24;93806.78;;;-140.63;66.43
11302;BME280;5706;50.650;13.380;2023-02-18T10:39:16;93754.53;;;-140.63;66.45
11302;BME280;5706;50.650;13.380;2023-02-18T10:42:15;93804.78;;;-140.63;66.45
11302;BME280;5706;50.650;13.380;2023-02-18T10:45:06;93903.28;;;-140.63;67.51
11302;BME280;5706;50.650;13.380;2023-02-18T10:48:33;93744.47;;;-140.63;66.34
11302;BME280;5706;50.650;13.380;2023-02-18T20:03:39;95425.28;;;-140.63;73.21
